Time;durP1;ratioP1;P1;durP2;ratioP2;P2;SDS_P1;SDS_P2;PMS_P1;PMS_P2;Temp;Humidity;BMP_temperature;BMP_pressure;BME280_temperature;BME280_humidity;BME280_pressure;Samples;Min_cycle;Max_cycle;Signal;HPM_P1;HPM_P2
2022/05/24 00:00:30;;;;;;;5.55;4.80;;;20.60;99.90;;;;;;5050299;28;21470;-76
2022/05/24 00:02:56;;;;;;;9.48;5.68;;;20.30;99.90;;;;;;5049519;28;20044;-75
2022/05/24 00:05:24;;;;;;;6.75;5.53;;;21.30;99.90;;;;;;5034397;28;20044;-75
2022/05/24 00:07:50;;;;;;;8.45;6.30;;;19.30;99.90;;;;;;5043068;28;20044;-76
2022/05/24 00:10:24;;;;;;;7.97;5.50;;;20.40;99.90;;;;;;5017451;28;20147;-76
2022/05/24 00:12:50;;;;;;;7.60;6.47;;;21.40;99.90;;;;;;5026199;28;20107;-76
2022/05/24 00:15:23;;;;;;;8.43;5.85;;;20.30;99.90;;;;;;5044804;28;20041;-76
2022/05/24 00:18:03;;;;;;;11.30;6.50;;;18.90;99.90;;;;;;5044306;28;20048;-76
2022/05/24 00:20:33;;;;;;;9.73;7.43;;;21.40;99.90;;;;;;5025658;28;20511;-75
2022/05/24 00:22:59;;;;;;;8.57;6.55;;;21.30;99.90;;;;;;5025418;28;20036;-76
2022/05/24 00:25:26;;;;;;;11.52;7.43;;;18.70;99.90;;;;;;5043168;28;20033;-75
2022/05/24 00:27:52;;;;;;;8.38;6.43;;;18.90;99.90;;;;;;5064393;28;20033;-76
2022/05/24 00:30:18;;;;;;;8.38;6.50;;;20.40;99.90;;;;;;5043708;28;20037;-77
2022/05/24 00:32:44;;;;;;;10.40;6.38;;;18.60;99.90;;;;;;5043571;28;20407;-76
2022/05/24 00:35:10;;;;;;;10.10;6.78;;;20.70;99.90;;;;;;5026579;28;20036;-77
2022/05/24 00:37:38;;;;;;;12.13;7.05;;;18.90;99.90;;;;;;5018868;28;20166;-77
2022/05/24 00:40:06;;;;;;;11.85;7.00;;;20.70;99.90;;;;;;5043830;28;20504;-76
2022/05/24 00:42:32;;;;;;;9.80;6.65;;;20.80;99.90;;;;;;5019735;28;20045;-75
2022/05/24 00:45:13;;;;;;;8.25;6.55;;;19.00;99.90;;;;;;4998491;28;20036;-77
2022/05/24 00:47:43;;;;;;;7.43;6.65;;;20.70;99.90;;;;;;5044404;28;20116;-76
2022/05/24 00:50:19;;;;;;;10.93;7.95;;;20.40;99.90;;;;;;5042384;28;20072;-76
2022/05/24 00:52:49;;;;;;;10.23;7.15;;;18.80;99.90;;;;;;5034380;28;20041;-77
2022/05/24 00:55:16;;;;;;;9.00;7.05;;;19.00;99.90;;;;;;5042987;28;20043;-76
2022/05/24 00:58:07;;;;;;;10.80;6.40;;;20.80;99.90;;;;;;5044086;28;20082;-77
2022/05/24 01:00:34;;;;;;;9.82;7.00;;;20.00;99.90;;;;;;5042004;28;20078;-76
2022/05/24 01:03:00;;;;;;;8.18;6.32;;;18.80;99.90;;;;;;5018073;28;20108;-77
2022/05/24 01:05:29;;;;;;;9.15;6.57;;;19.20;99.90;;;;;;5045053;28;20041;-76
2022/05/24 01:07:56;;;;;;;9.07;6.72;;;19.90;99.90;;;;;;5040824;28;20049;-77
2022/05/24 01:10:32;;;;;;;9.85;6.40;;;18.30;99.90;;;;;;5035423;28;20803;-77
2022/05/24 01:13:13;;;;;;;8.20;5.65;;;17.80;99.90;;;;;;5025139;28;20049;-75
2022/05/24 01:15:43;;;;;;;6.82;5.45;;;17.60;99.90;;;;;;5041765;28;20044;-76
2022/05/24 01:18:09;;;;;;;8.25;5.88;;;17.50;99.90;;;;;;5029473;28;20052;-75
2022/05/24 01:20:35;;;;;;;7.32;5.57;;;18.10;99.90;;;;;;5014669;28;20056;-75
2022/05/24 01:23:16;;;;;;;9.38;5.80;;;19.50;99.90;;;;;;5044676;28;20037;-76
2022/05/24 01:26:03;;;;;;;6.68;5.75;;;18.60;99.90;;;;;;5038049;28;20044;-76
2022/05/24 01:28:44;;;;;;;7.57;5.15;;;19.00;99.90;;;;;;5032597;28;20048;-75
2022/05/24 01:31:10;;;;;;;7.93;6.10;;;19.30;99.90;;;;;;5040758;28;20505;-75
2022/05/24 01:36:24;;;;;;;7.22;5.45;;;19.20;99.90;;;;;;5029966;28;20137;-75
2022/05/24 01:38:58;;;;;;;5.78;5.18;;;17.20;99.90;;;;;;5024267;28;20540;-75
2022/05/24 01:41:34;;;;;;;7.53;6.03;;;17.20;99.90;;;;;;5045896;28;20040;-74
2022/05/24 01:44:00;;;;;;;8.35;6.07;;;19.00;99.90;;;;;;5047065;28;20102;-75
2022/05/24 01:46:37;;;;;;;9.05;6.68;;;17.10;99.90;;;;;;5045706;28;20871;-74
2022/05/24 01:49:08;;;;;;;9.55;6.68;;;19.00;99.90;;;;;;5046402;28;20504;-74
2022/05/24 01:51:45;;;;;;;8.95;6.40;;;17.30;99.90;;;;;;5043402;28;20056;-74
2022/05/24 01:54:13;;;;;;;7.93;6.35;;;16.80;99.90;;;;;;5028368;28;20397;-75
2022/05/24 01:56:50;;;;;;;8.57;6.63;;;18.60;99.90;;;;;;5046260;28;20041;-75
2022/05/24 01:59:17;;;;;;;9.73;7.07;;;18.80;99.90;;;;;;5047584;28;20127;-75
2022/05/24 02:01:46;;;;;;;9.90;7.25;;;17.50;99.90;;;;;;5028659;28;20401;-74
2022/05/24 02:04:12;;;;;;;9.65;7.63;;;18.80;99.90;;;;;;5021807;28;20044;-74
2022/05/24 02:06:38;;;;;;;13.05;8.10;;;17.80;99.90;;;;;;4965018;28;1087835;-74
2022/05/24 02:09:06;;;;;;;12.18;8.07;;;18.10;99.90;;;;;;5031999;28;20048;-74
2022/05/24 02:11:34;;;;;;;10.82;8.20;;;17.20;99.90;;;;;;5029588;28;20064;-74
2022/05/24 02:14:23;;;;;;;10.63;8.85;;;17.00;99.90;;;;;;5012061;28;20080;-75
2022/05/24 02:17:01;;;;;;;11.50;9.10;;;18.60;99.90;;;;;;5025268;28;20040;-74
2022/05/24 02:19:30;;;;;;;9.93;8.48;;;17.50;99.90;;;;;;5044934;28;20483;-75
2022/05/24 02:22:00;;;;;;;13.02;10.00;;;18.80;99.90;;;;;;5044915;28;20057;-75
2022/05/24 02:24:26;;;;;;;9.85;8.48;;;19.00;99.90;;;;;;5041611;28;20444;-75
2022/05/24 02:26:52;;;;;;;12.93;9.18;;;17.40;99.90;;;;;;5037858;28;20032;-76
2022/05/24 02:29:20;;;;;;;12.98;9.80;;;18.80;99.90;;;;;;5046937;28;20481;-74
2022/05/24 02:31:46;;;;;;;12.55;10.10;;;18.90;99.90;;;;;;5045827;28;20041;-75
2022/05/24 02:34:12;;;;;;;12.20;9.93;;;17.30;99.90;;;;;;5022326;28;20041;-74
2022/05/24 02:36:44;;;;;;;11.88;10.65;;;18.30;99.90;;;;;;5045811;28;20048;-75
2022/05/24 02:39:10;;;;;;;13.73;10.02;;;19.00;99.90;;;;;;4978492;28;20406;-75
2022/05/24 02:41:36;;;;;;;14.02;10.18;;;17.70;99.90;;;;;;5025669;28;20041;-75
2022/05/24 02:44:09;;;;;;;10.27;8.88;;;17.30;99.90;;;;;;5031951;28;20048;-76
2022/05/24 02:46:38;;;;;;;13.00;9.60;;;19.20;99.90;;;;;;5046789;28;20488;-75
2022/05/24 02:49:04;;;;;;;10.23;9.05;;;17.50;99.90;;;;;;5047449;28;20037;-76
2022/05/24 02:51:30;;;;;;;10.88;8.88;;;17.50;99.90;;;;;;5044563;28;20370;-75
2022/05/24 02:53:55;;;;;;;14.60;9.88;;;19.10;99.90;;;;;;5028291;28;20074;-75
2022/05/24 02:56:22;;;;;;;12.77;8.95;;;19.60;99.90;;;;;;5024459;28;20089;-76
2022/05/24 02:58:48;;;;;;;11.95;8.90;;;18.90;99.90;;;;;;5010174;28;20097;-75
2022/05/24 03:01:20;;;;;;;10.82;8.85;;;18.40;99.90;;;;;;5045154;28;21372;-74
2022/05/24 03:03:49;;;;;;;12.32;8.38;;;19.10;99.90;;;;;;5046898;28;20042;-74
2022/05/24 03:06:17;;;;;;;11.05;9.23;;;18.10;99.90;;;;;;5027276;28;20044;-75
2022/05/24 03:11:27;;;;;;;10.60;8.02;;;18.30;99.90;;;;;;5036809;28;20064;-76
2022/05/24 03:16:37;;;;;;;14.33;9.30;;;19.30;99.90;;;;;;5015345;28;20055;-73
2022/05/24 03:19:05;;;;;;;12.57;9.30;;;19.80;99.90;;;;;;5048165;28;20123;-73
2022/05/24 03:21:31;;;;;;;10.63;9.13;;;18.80;99.90;;;;;;5046381;28;20037;-74
2022/05/24 03:23:56;;;;;;;14.60;10.38;;;18.90;99.90;;;;;;5020658;28;20071;-76
2022/05/24 03:26:22;;;;;;;11.82;9.70;;;20.30;99.90;;;;;;5028733;28;20629;-74
2022/05/24 03:28:48;;;;;;;13.50;10.65;;;18.60;99.90;;;;;;5027865;28;20063;-76
2022/05/24 03:31:15;;;;;;;15.70;10.35;;;19.00;99.90;;;;;;5044229;28;20073;-75
2022/05/24 03:33:41;;;;;;;14.82;12.60;;;19.00;99.90;;;;;;5025534;28;20041;-75
2022/05/24 03:36:07;;;;;;;16.02;12.23;;;19.60;99.90;;;;;;5023718;28;20401;-75
2022/05/24 03:38:33;;;;;;;20.15;14.95;;;20.50;99.90;;;;;;5026286;28;20053;-75
2022/05/24 03:40:58;;;;;;;19.80;14.05;;;19.20;99.90;;;;;;5037947;28;20083;-75
2022/05/24 03:43:24;;;;;;;21.52;17.02;;;20.00;99.90;;;;;;5017515;28;20041;-74
2022/05/24 03:46:06;;;;;;;22.40;16.30;;;20.50;99.90;;;;;;5035251;28;20033;-74
2022/05/24 03:48:31;;;;;;;20.20;15.13;;;20.10;99.90;;;;;;5047924;28;20049;-76
2022/05/24 03:50:57;;;;;;;23.42;18.77;;;20.50;99.90;;;;;;5045183;28;20417;-76
2022/05/24 03:53:25;;;;;;;26.50;19.17;;;20.30;99.90;;;;;;5047414;28;20049;-76
2022/05/24 03:55:51;;;;;;;24.95;18.00;;;20.60;99.90;;;;;;5043030;28;20037;-77
2022/05/24 03:58:17;;;;;;;22.52;17.95;;;19.30;99.90;;;;;;5046927;28;20037;-76
2022/05/24 04:00:44;;;;;;;26.45;20.63;;;21.10;99.90;;;;;;5028570;28;20435;-75
2022/05/24 04:03:10;;;;;;;28.55;20.88;;;21.10;99.90;;;;;;5013829;28;20040;-75
2022/05/24 04:05:36;;;;;;;31.80;21.23;;;20.90;99.90;;;;;;5045650;28;20045;-75
2022/05/24 04:08:02;;;;;;;28.15;20.65;;;19.90;99.90;;;;;;5045007;28;20049;-76
2022/05/24 04:10:31;;;;;;;31.00;22.38;;;21.40;99.90;;;;;;5045992;28;20047;-75
2022/05/24 04:12:57;;;;;;;32.10;20.88;;;20.20;99.90;;;;;;5042981;28;20041;-76
2022/05/24 04:15:23;;;;;;;34.67;22.38;;;21.10;99.90;;;;;;5028219;28;20393;-76
2022/05/24 04:17:51;;;;;;;33.75;22.67;;;21.30;99.90;;;;;;5010742;28;20045;-76
2022/05/24 04:20:17;;;;;;;33.60;22.92;;;21.30;99.90;;;;;;5028423;28;20350;-76
2022/05/24 04:22:43;;;;;;;30.83;22.17;;;20.20;99.90;;;;;;5032240;28;20406;-74
2022/05/24 04:25:11;;;;;;;30.27;21.73;;;21.20;99.90;;;;;;5030997;28;20064;-76
2022/05/24 04:27:37;;;;;;;32.95;22.73;;;20.60;99.90;;;;;;5044917;28;20037;-75
2022/05/24 04:30:04;;;;;;;30.45;22.60;;;20.60;99.90;;;;;;5050056;28;20044;-75
2022/05/24 04:32:30;;;;;;;29.52;22.40;;;20.10;99.90;;;;;;5045601;28;20037;-75
2022/05/24 04:34:56;;;;;;;31.48;21.90;;;20.30;99.90;;;;;;5032815;28;20056;-76
2022/05/24 04:37:21;;;;;;;33.22;22.40;;;19.90;99.90;;;;;;5044235;28;20385;-76
2022/05/24 04:39:47;;;;;;;30.38;21.48;;;21.00;99.90;;;;;;5047656;28;20037;-75
2022/05/24 04:42:18;;;;;;;29.15;20.85;;;20.00;99.90;;;;;;4994888;28;20044;-76
2022/05/24 04:44:46;;;;;;;30.70;21.75;;;21.20;99.90;;;;;;5045991;28;20103;-75
2022/05/24 04:47:13;;;;;;;30.23;20.92;;;21.30;99.90;;;;;;5035530;28;20400;-76
2022/05/24 04:49:43;;;;;;;27.23;19.58;;;21.30;99.90;;;;;;5029554;28;20041;-75
2022/05/24 04:52:12;;;;;;;26.40;20.50;;;20.00;99.90;;;;;;5048189;28;20045;-75
2022/05/24 04:54:39;;;;;;;27.02;18.33;;;20.90;99.90;;;;;;5051488;28;20033;-75
2022/05/24 04:57:06;;;;;;;23.92;17.95;;;20.20;99.90;;;;;;5050216;28;20048;-75
2022/05/24 04:59:32;;;;;;;22.08;16.80;;;20.90;99.90;;;;;;5028813;28;20056;-75
2022/05/24 05:01:58;;;;;;;21.23;16.67;;;21.30;99.90;;;;;;5037876;28;20045;-75
2022/05/24 05:04:24;;;;;;;21.20;16.45;;;21.00;99.90;;;;;;5032569;28;20128;-75
2022/05/24 05:06:50;;;;;;;24.58;15.82;;;20.90;99.90;;;;;;5034338;28;20057;-74
2022/05/24 05:09:17;;;;;;;19.90;15.95;;;19.80;99.90;;;;;;5044592;28;20049;-73
2022/05/24 05:11:43;;;;;;;20.38;14.50;;;20.00;99.90;;;;;;5048121;28;20086;-73
2022/05/24 05:14:10;;;;;;;18.65;15.35;;;20.00;99.90;;;;;;5050957;28;20091;-75
2022/05/24 05:16:36;;;;;;;19.08;14.90;;;20.90;99.90;;;;;;5048701;28;20131;-74
2022/05/24 05:19:07;;;;;;;18.27;14.82;;;20.80;99.90;;;;;;5033912;28;20397;-75
2022/05/24 05:21:35;;;;;;;17.52;13.40;;;21.10;99.90;;;;;;5029702;28;20052;-75
2022/05/24 05:24:02;;;;;;;18.33;13.50;;;20.80;99.90;;;;;;5047578;28;20060;-76
2022/05/24 05:26:29;;;;;;;20.70;14.98;;;20.30;99.90;;;;;;5044534;28;20060;-74
2022/05/24 05:28:54;;;;;;;22.77;15.20;;;19.40;99.90;;;;;;5047550;28;20048;-74
2022/05/24 05:31:25;;;;;;;21.40;14.25;;;20.00;99.90;;;;;;5031604;28;20111;-73
2022/05/24 05:33:51;;;;;;;16.85;13.48;;;19.40;99.90;;;;;;5047752;28;20076;-73
2022/05/24 05:36:21;;;;;;;17.90;13.65;;;19.30;99.90;;;;;;5035430;28;20062;-74
2022/05/24 05:38:47;;;;;;;19.08;14.40;;;20.50;99.90;;;;;;5038705;28;20428;-75
2022/05/24 05:41:18;;;;;;;19.58;14.73;;;20.30;99.90;;;;;;5031971;28;20037;-75
2022/05/24 05:43:44;;;;;;;20.50;14.60;;;20.10;99.90;;;;;;5050214;28;20500;-74
2022/05/24 05:46:12;;;;;;;20.27;14.40;;;19.50;99.90;;;;;;5050421;28;20047;-74
2022/05/24 05:48:38;;;;;;;18.63;13.65;;;19.90;99.90;;;;;;5024590;28;20080;-75
2022/05/24 05:51:06;;;;;;;19.85;13.90;;;20.40;99.90;;;;;;5031179;28;20055;-74
2022/05/24 05:53:31;;;;;;;19.08;13.52;;;20.20;99.90;;;;;;5029979;28;20038;-74
2022/05/24 05:55:57;;;;;;;15.82;13.25;;;19.20;99.90;;;;;;5046192;28;20102;-73
2022/05/24 05:58:23;;;;;;;17.08;12.82;;;19.00;99.90;;;;;;5023029;28;20040;-73
2022/05/24 06:00:49;;;;;;;18.90;12.75;;;19.20;99.90;;;;;;5052058;28;20085;-73
2022/05/24 06:03:16;;;;;;;16.00;11.70;;;18.90;99.90;;;;;;5024099;28;20029;-73
2022/05/24 06:05:43;;;;;;;14.73;11.48;;;18.70;99.90;;;;;;5045930;28;20135;-74
2022/05/24 06:08:10;;;;;;;19.35;12.30;;;18.80;99.90;;;;;;5050773;28;20045;-74
2022/05/24 06:10:36;;;;;;;16.55;13.50;;;18.50;99.90;;;;;;5033268;28;20124;-74
2022/05/24 06:13:03;;;;;;;19.23;13.73;;;18.60;99.90;;;;;;5020571;28;20443;-77
2022/05/24 06:15:30;;;;;;;19.35;12.40;;;19.70;99.90;;;;;;4997276;28;20129;-76
2022/05/24 06:17:56;;;;;;;20.73;14.93;;;18.40;99.90;;;;;;5018821;28;20495;-76
2022/05/24 06:20:25;;;;;;;19.02;15.65;;;18.10;99.90;;;;;;5034155;28;20040;-77
2022/05/24 06:22:53;;;;;;;23.95;15.93;;;19.40;99.90;;;;;;5017788;28;20038;-76
2022/05/24 06:25:23;;;;;;;25.83;17.33;;;18.10;99.90;;;;;;5018032;28;20086;-75
2022/05/24 06:27:49;;;;;;;25.85;17.75;;;18.20;99.90;;;;;;5028471;28;20476;-75
2022/05/24 06:30:16;;;;;;;27.13;19.85;;;18.80;99.90;;;;;;5050682;28;20479;-75
2022/05/24 06:32:42;;;;;;;22.13;17.70;;;19.40;99.90;;;;;;5037752;28;20045;-75
2022/05/24 06:35:08;;;;;;;24.33;18.58;;;18.80;99.90;;;;;;5030554;28;20047;-74
2022/05/24 06:37:34;;;;;;;28.42;17.08;;;18.40;99.90;;;;;;5030209;28;20056;-76
2022/05/24 06:40:00;;;;;;;30.65;19.08;;;18.50;99.90;;;;;;5027709;28;20041;-74
2022/05/24 06:42:25;;;;;;;31.85;17.38;;;19.10;99.90;;;;;;5025826;28;20033;-73
2022/05/24 06:44:51;;;;;;;26.65;18.00;;;19.10;99.90;;;;;;5001051;28;20127;-74
2022/05/24 06:47:17;;;;;;;24.50;16.42;;;18.80;99.90;;;;;;5037820;28;20056;-73
2022/05/24 06:49:43;;;;;;;24.85;15.25;;;19.80;99.90;;;;;;5021566;28;20033;-74
2022/05/24 06:52:08;;;;;;;22.48;15.98;;;18.50;99.90;;;;;;5024533;28;20037;-75
2022/05/24 06:54:35;;;;;;;25.85;13.98;;;19.80;99.90;;;;;;5033533;28;20070;-75
2022/05/24 06:57:02;;;;;;;19.67;13.57;;;19.50;99.90;;;;;;5049172;28;20121;-75
2022/05/24 07:02:25;;;;;;;18.98;13.52;;;18.60;99.90;;;;;;5015848;28;20397;-74
2022/05/24 07:04:55;;;;;;;19.08;13.13;;;18.30;99.90;;;;;;5045452;28;20379;-75
2022/05/24 07:07:21;;;;;;;17.83;11.88;;;18.20;99.90;;;;;;5032669;28;20084;-75
2022/05/24 07:09:46;;;;;;;17.30;12.05;;;18.30;99.90;;;;;;5048183;28;20075;-75
2022/05/24 07:12:12;;;;;;;18.20;10.70;;;19.20;99.90;;;;;;5039189;28;20095;-74
2022/05/24 07:14:38;;;;;;;15.90;11.07;;;18.00;99.90;;;;;;5037239;28;20393;-75
2022/05/24 07:17:03;;;;;;;15.32;10.52;;;18.60;99.90;;;;;;5043970;28;20037;-75
2022/05/24 07:19:32;;;;;;;13.63;10.10;;;17.70;99.90;;;;;;5026453;28;20045;-75
2022/05/24 07:21:57;;;;;;;15.70;10.43;;;18.10;99.90;;;;;;5042278;28;20052;-75
2022/05/24 07:24:23;;;;;;;13.85;9.35;;;17.40;99.90;;;;;;5046612;28;20041;-75
2022/05/24 07:26:49;;;;;;;21.45;10.25;;;17.90;99.90;;;;;;5032331;28;20047;-75
2022/05/24 07:29:14;;;;;;;13.10;8.75;;;17.70;99.90;;;;;;5026444;28;20074;-74
2022/05/24 07:31:40;;;;;;;14.98;9.20;;;18.20;99.90;;;;;;5018973;28;20401;-74
2022/05/24 07:34:06;;;;;;;14.20;9.07;;;18.20;99.90;;;;;;5043942;28;20045;-72
2022/05/24 07:36:32;;;;;;;15.25;10.23;;;18.00;99.90;;;;;;5016177;28;20047;-72
2022/05/24 07:38:58;;;;;;;13.07;9.10;;;18.00;99.90;;;;;;5032821;28;20041;-72
2022/05/24 07:46:53;;;;;;;12.73;8.15;;;17.60;99.90;;;;;;5035369;28;20087;-71
2022/05/24 07:49:18;;;;;;;10.90;7.28;;;17.60;99.90;;;;;;5016112;28;20645;-71
2022/05/24 07:51:44;;;;;;;9.95;6.50;;;17.50;99.90;;;;;;5049019;28;20420;-73
2022/05/24 07:54:10;;;;;;;8.82;6.30;;;17.40;99.90;;;;;;5049407;28;20135;-72
2022/05/24 07:56:35;;;;;;;11.05;6.70;;;17.00;99.90;;;;;;5015964;28;20459;-73
2022/05/24 07:59:01;;;;;;;10.07;7.43;;;17.30;99.90;;;;;;5032461;28;20052;-74
2022/05/24 08:01:27;;;;;;;10.63;7.22;;;16.60;99.90;;;;;;5049121;28;20086;-74
2022/05/24 08:03:53;;;;;;;12.55;7.18;;;16.60;99.90;;;;;;5049353;28;20056;-75
2022/05/24 08:06:19;;;;;;;10.85;8.30;;;17.30;99.90;;;;;;5016310;28;20060;-76
2022/05/24 08:08:44;;;;;;;12.00;8.70;;;16.40;99.90;;;;;;5032807;28;20354;-76
2022/05/24 08:11:10;;;;;;;11.27;8.13;;;17.30;99.90;;;;;;5016480;28;20064;-74
2022/05/24 08:13:36;;;;;;;16.00;10.02;;;17.30;99.90;;;;;;5032508;28;20378;-75
2022/05/24 08:16:03;;;;;;;16.55;8.80;;;16.40;99.90;;;;;;5016445;28;20052;-76
2022/05/24 08:18:28;;;;;;;9.98;7.47;;;16.40;99.90;;;;;;5036446;28;20037;-78
2022/05/24 08:20:55;;;;;;;10.60;7.40;;;16.50;99.90;;;;;;5036271;28;20060;-77
2022/05/24 08:23:22;;;;;;;8.38;6.05;;;17.40;99.90;;;;;;5036903;28;20385;-77
2022/05/24 08:25:49;;;;;;;7.45;5.13;;;16.40;99.90;;;;;;5036212;28;20037;-76
2022/05/24 08:28:16;;;;;;;7.22;5.93;;;17.30;99.90;;;;;;5052816;28;20064;-78
2022/05/24 08:30:42;;;;;;;8.35;5.60;;;17.20;99.90;;;;;;5036128;28;20047;-76
2022/05/24 08:33:11;;;;;;;10.57;6.13;;;17.10;99.90;;;;;;5036028;28;20049;-76
2022/05/24 08:35:37;;;;;;;8.88;6.30;;;16.80;99.90;;;;;;5035701;28;20497;-75
2022/05/24 08:38:05;;;;;;;8.93;6.60;;;16.60;99.90;;;;;;5053295;28;20123;-78
2022/05/24 08:40:37;;;;;;;8.90;6.97;;;17.40;99.90;;;;;;5035640;28;20045;-77
2022/05/24 08:43:37;;;;;;;8.02;7.22;;;16.80;99.90;;;;;;5036278;28;20124;-76
2022/05/24 08:49:05;;;;;;;13.50;8.15;;;18.60;99.90;;;;;;5052593;28;20048;-77
2022/05/24 08:51:44;;;;;;;12.55;10.10;;;18.40;99.90;;;;;;5052196;28;20130;-75
2022/05/24 08:54:16;;;;;;;15.70;10.30;;;18.60;99.90;;;;;;5035551;28;20041;-76
2022/05/24 08:56:56;;;;;;;13.82;10.55;;;18.40;99.90;;;;;;5051669;28;20130;-74
2022/05/24 08:59:29;;;;;;;18.67;10.15;;;19.40;99.90;;;;;;5051766;28;20152;-74
2022/05/24 09:01:56;;;;;;;13.65;8.90;;;18.70;99.90;;;;;;5034262;28;20083;-73
2022/05/24 09:04:22;;;;;;;13.77;9.32;;;19.30;99.90;;;;;;5051315;28;20363;-74
2022/05/24 09:06:51;;;;;;;9.32;7.95;;;19.00;99.90;;;;;;5051263;28;20056;-73
2022/05/24 09:09:38;;;;;;;11.48;7.75;;;18.20;99.90;;;;;;5051724;28;20128;-74
2022/05/24 09:12:25;;;;;;;11.02;7.82;;;18.40;99.90;;;;;;5052198;28;20520;-73
2022/05/24 09:15:13;;;;;;;8.90;7.40;;;18.80;99.90;;;;;;5034842;28;20135;-75
2022/05/24 09:18:04;;;;;;;10.38;7.53;;;18.70;99.90;;;;;;5035189;28;20350;-73
2022/05/24 09:20:35;;;;;;;12.07;8.02;;;18.20;99.90;;;;;;5035313;28;20044;-73
2022/05/24 09:23:24;;;;;;;12.23;8.48;;;17.70;99.90;;;;;;5051453;28;20048;-73
2022/05/24 09:25:58;;;;;;;11.32;9.05;;;17.50;99.90;;;;;;5034966;28;20370;-73
2022/05/24 09:28:49;;;;;;;17.05;9.75;;;17.40;99.90;;;;;;5035891;28;20068;-73
2022/05/24 09:31:30;;;;;;;12.65;8.38;;;16.70;99.90;;;;;;5051670;28;20408;-74
2022/05/24 09:34:19;;;;;;;13.57;8.27;;;16.90;99.90;;;;;;5034850;28;20040;-76
2022/05/24 09:37:28;;;;;;;8.82;6.47;;;16.40;99.90;;;;;;5045856;28;20053;-75
2022/05/24 09:40:03;;;;;;;14.00;9.10;;;16.00;99.90;;;;;;5048248;28;20554;-76
2022/05/24 09:42:33;;;;;;;11.77;8.57;;;17.10;99.90;;;;;;5034681;28;20041;-77
2022/05/24 09:45:20;;;;;;;10.95;7.85;;;15.80;99.90;;;;;;5051753;28;20556;-76
2022/05/24 09:47:48;;;;;;;5.25;4.15;;;16.20;99.90;;;;;;5050998;28;20043;-76
2022/05/24 09:50:34;;;;;;;4.05;3.40;;;15.50;99.90;;;;;;5051667;28;20402;-76
2022/05/24 09:53:06;;;;;;;5.70;2.75;;;15.80;99.90;;;;;;5034610;28;20048;-75
2022/05/24 09:55:38;;;;;;;4.95;2.88;;;16.80;99.90;;;;;;5053478;28;20127;-76
2022/05/24 09:58:16;;;;;;;3.72;2.15;;;15.90;99.90;;;;;;5071442;28;20115;-75
2022/05/24 10:00:57;;;;;;;6.05;2.60;;;16.30;99.90;;;;;;5053886;28;20080;-74
2022/05/24 10:03:30;;;;;;;2.55;2.13;;;15.90;99.90;;;;;;5070818;28;20173;-75
2022/05/24 10:06:06;;;;;;;3.58;2.22;;;15.50;99.90;;;;;;5070553;28;20032;-75
2022/05/24 10:08:49;;;;;;;4.22;2.13;;;16.80;99.90;;;;;;5038839;28;20049;-75
2022/05/24 10:11:33;;;;;;;2.90;1.90;;;16.00;99.90;;;;;;5034501;28;20037;-75
2022/05/24 10:14:37;;;;;;;2.58;2.20;;;16.50;99.90;;;;;;5034103;28;20124;-75
2022/05/24 10:17:16;;;;;;;3.92;2.15;;;17.60;99.90;;;;;;5034091;28;20044;-75
2022/05/24 10:20:07;;;;;;;3.97;2.58;;;16.80;99.90;;;;;;5033685;28;20127;-76
2022/05/24 10:22:54;;;;;;;4.40;1.90;;;17.60;99.90;;;;;;5034019;28;20123;-75
2022/05/24 10:25:35;;;;;;;4.40;2.08;;;17.30;99.90;;;;;;5050886;28;20047;-76
2022/05/24 10:28:31;;;;;;;2.92;2.03;;;17.10;99.90;;;;;;5034074;28;20064;-76
2022/05/24 10:31:04;;;;;;;4.63;2.10;;;17.00;99.90;;;;;;5033657;28;20143;-76
2022/05/24 10:39:30;;;;;;;5.88;2.28;;;17.50;99.90;;;;;;5049540;28;20056;-74
2022/05/24 10:42:05;;;;;;;3.75;1.77;;;17.00;99.90;;;;;;5050102;28;20041;-74
2022/05/24 10:44:51;;;;;;;3.70;1.88;;;17.50;99.90;;;;;;5026833;28;20041;-75
2022/05/24 10:47:39;;;;;;;4.40;2.30;;;17.20;99.90;;;;;;5013512;28;20073;-75
2022/05/24 10:50:09;;;;;;;2.92;1.90;;;16.70;99.90;;;;;;5029134;28;20092;-75
2022/05/24 10:53:08;;;;;;;3.03;1.90;;;16.00;99.90;;;;;;5038248;28;20489;-76
2022/05/24 10:56:06;;;;;;;4.50;2.10;;;15.80;99.90;;;;;;5030350;28;20045;-76
2022/05/24 10:58:35;;;;;;;9.50;2.28;;;15.70;99.90;;;;;;5045829;28;20053;-76
2022/05/24 11:01:29;;;;;;;2.70;2.20;;;16.00;99.90;;;;;;5032390;28;20561;-77
2022/05/24 11:04:04;;;;;;;5.88;2.45;;;16.00;99.90;;;;;;5032022;28;20033;-76
2022/05/24 11:06:41;;;;;;;2.63;2.28;;;15.30;99.90;;;;;;5012371;28;20141;-76
2022/05/24 11:09:27;;;;;;;2.90;2.00;;;15.30;99.90;;;;;;5012489;28;20041;-77
2022/05/24 11:12:16;;;;;;;1.92;1.60;;;16.10;99.90;;;;;;5012340;28;20132;-77
2022/05/24 11:14:53;;;;;;;2.28;1.20;;;16.20;99.90;;;;;;5012403;28;20450;-77
2022/05/24 11:17:20;;;;;;;1.27;1.17;;;15.80;99.90;;;;;;5029701;28;20071;-77
2022/05/24 11:19:51;;;;;;;4.50;1.50;;;16.20;99.90;;;;;;5012705;28;20083;-76
2022/05/24 11:22:29;;;;;;;5.25;2.30;;;16.10;99.90;;;;;;5029047;28;20049;-76
2022/05/24 11:25:19;;;;;;;5.13;2.08;;;15.60;99.90;;;;;;5012803;28;20125;-77
2022/05/24 11:27:50;;;;;;;4.85;2.63;;;16.10;99.90;;;;;;5028361;28;20037;-77
2022/05/24 11:30:35;;;;;;;3.63;2.28;;;15.60;99.90;;;;;;5029090;28;20581;-77
2022/05/24 11:33:06;;;;;;;3.42;2.55;;;16.20;99.90;;;;;;5028761;28;20389;-77
2022/05/24 11:35:39;;;;;;;4.38;2.63;;;15.90;99.90;;;;;;5012519;28;20053;-77
2022/05/24 11:38:23;;;;;;;6.47;2.65;;;16.00;99.90;;;;;;5012380;28;20041;-77
2022/05/24 11:40:54;;;;;;;4.32;2.88;;;16.20;99.90;;;;;;5028293;28;20048;-76
2022/05/24 11:43:35;;;;;;;4.05;3.00;;;17.20;99.90;;;;;;5012172;28;20038;-77
2022/05/24 11:46:28;;;;;;;3.58;2.40;;;17.40;99.90;;;;;;5028293;28;20087;-77
2022/05/24 11:48:56;;;;;;;3.50;2.40;;;17.20;99.90;;;;;;5028197;28;20045;-77
2022/05/24 11:51:48;;;;;;;4.03;1.50;;;18.10;99.90;;;;;;5012884;28;20041;-77
2022/05/24 11:54:18;;;;;;;3.67;1.20;;;17.90;99.90;;;;;;5032757;28;20382;-76
2022/05/24 11:57:02;;;;;;;3.70;1.25;;;18.30;99.90;;;;;;5015660;28;20041;-76
2022/05/24 11:59:40;;;;;;;2.20;1.48;;;18.20;99.90;;;;;;5032333;28;20041;-76
2022/05/24 12:02:32;;;;;;;2.63;1.50;;;19.10;99.90;;;;;;5015453;28;20043;-76
2022/05/24 12:08:18;;;;;;;1.92;1.30;;;18.20;99.90;;;;;;5031676;28;20049;-77
2022/05/24 12:11:06;;;;;;;5.50;1.58;;;18.10;99.90;;;;;;5007000;28;20095;-76
2022/05/24 12:13:48;;;;;;;3.35;1.60;;;17.50;99.90;;;;;;5031810;28;20048;-75
2022/05/24 12:16:35;;;;;;;1.80;1.65;;;17.10;99.90;;;;;;5031904;28;20127;-76
2022/05/24 12:19:04;;;;;;;4.28;1.88;;;17.60;99.90;;;;;;5031743;28;20056;-76
2022/05/24 12:22:00;;;;;;;3.45;1.75;;;17.20;99.90;;;;;;5015159;28;20042;-75
2022/05/24 12:24:28;;;;;;;2.05;1.50;;;17.20;99.90;;;;;;5031807;28;20128;-76
2022/05/24 12:27:15;;;;;;;3.15;1.00;;;16.80;99.90;;;;;;5014542;28;20037;-75
2022/05/24 12:29:43;;;;;;;1.92;0.95;;;16.80;99.90;;;;;;5030785;28;20041;-76
2022/05/24 12:32:09;;;;;;;2.15;1.23;;;16.50;99.90;;;;;;5030563;28;20059;-76
2022/05/24 12:34:35;;;;;;;2.90;1.00;;;16.00;99.90;;;;;;5031009;28;20049;-74
2022/05/24 12:37:13;;;;;;;3.00;1.08;;;15.90;99.90;;;;;;5014633;28;20046;-74
2022/05/24 12:39:38;;;;;;;3.42;1.10;;;16.80;99.90;;;;;;5030902;28;20053;-74
2022/05/24 12:42:13;;;;;;;3.05;1.10;;;16.80;99.90;;;;;;5031059;28;20041;-74
2022/05/24 12:44:47;;;;;;;2.20;1.60;;;17.10;99.90;;;;;;5014999;28;20033;-74
2022/05/24 12:47:17;;;;;;;2.72;1.20;;;16.80;99.90;;;;;;5015224;28;20128;-74
2022/05/24 12:49:48;;;;;;;2.65;2.03;;;16.20;99.90;;;;;;5031148;28;20171;-74
2022/05/24 12:52:24;;;;;;;3.28;1.52;;;16.00;99.90;;;;;;5014867;28;20156;-74
2022/05/24 12:54:57;;;;;;;3.35;1.40;;;15.90;99.90;;;;;;5014559;28;20539;-74
2022/05/24 12:57:39;;;;;;;1.92;1.40;;;15.80;99.90;;;;;;5031124;28;20071;-75
2022/05/24 13:00:11;;;;;;;3.25;1.55;;;15.70;99.90;;;;;;5031309;28;20448;-74
2022/05/24 13:02:39;;;;;;;6.38;1.85;;;16.00;99.90;;;;;;5030389;28;20088;-75
2022/05/24 13:05:10;;;;;;;3.65;1.73;;;16.80;99.90;;;;;;5030656;28;20105;-74
2022/05/24 13:07:38;;;;;;;4.40;1.80;;;17.50;99.90;;;;;;5030902;28;20060;-76
2022/05/24 13:10:12;;;;;;;2.55;1.42;;;17.20;99.90;;;;;;5014468;28;20060;-75
2022/05/24 13:12:38;;;;;;;2.55;1.35;;;17.70;99.90;;;;;;5014319;28;20037;-74
2022/05/24 13:15:08;;;;;;;2.95;1.30;;;17.70;99.90;;;;;;5030339;28;20045;-75
2022/05/24 13:17:40;;;;;;;3.72;1.17;;;17.50;99.90;;;;;;5030317;28;20049;-75
2022/05/24 13:20:24;;;;;;;3.22;1.20;;;17.20;99.90;;;;;;5030454;28;20057;-74
2022/05/24 13:23:01;;;;;;;2.17;1.15;;;17.80;99.90;;;;;;5030701;28;20045;-75
2022/05/24 13:25:49;;;;;;;4.18;1.30;;;16.90;99.90;;;;;;5030271;28;20041;-74
2022/05/24 13:28:39;;;;;;;2.70;1.52;;;17.10;99.90;;;;;;5030820;28;20049;-74